Time;durP1;ratioP1;P1;durP2;ratioP2;P2;SDS_P1;SDS_P2;PMS_P1;PMS_P2;Temp;Humidity;BMP_temperature;BMP_pressure;BME280_temperature;BME280_humidity;BME280_pressure;Samples;Min_cycle;Max_cycle;Signal;HPM_P1;HPM_P2
2023/03/24 00:01:47;;;;;;;5.65;4.68;;;14.40;56.90;;;;;;5096633;28;20111;-75
2023/03/24 00:04:13;;;;;;;6.80;5.40;;;14.40;56.80;;;;;;5077781;28;20028;-75
2023/03/24 00:06:39;;;;;;;5.78;4.93;;;14.40;56.80;;;;;;5078478;28;20020;-76
2023/03/24 00:09:05;;;;;;;5.30;4.47;;;14.40;56.80;;;;;;5077967;28;20366;-75
2023/03/24 00:11:33;;;;;;;5.53;4.65;;;14.40;56.80;;;;;;5077307;28;20024;-76
2023/03/24 00:14:02;;;;;;;6.45;5.30;;;14.40;56.90;;;;;;5095375;28;20414;-76
2023/03/24 00:16:28;;;;;;;6.15;4.80;;;14.40;56.90;;;;;;5095348;28;20024;-75
2023/03/24 00:18:54;;;;;;;5.47;4.50;;;14.40;56.90;;;;;;5095084;28;20111;-75
2023/03/24 00:21:23;;;;;;;5.85;4.70;;;14.40;56.80;;;;;;5095790;28;20070;-75
2023/03/24 00:23:49;;;;;;;5.93;5.13;;;14.40;56.90;;;;;;5095047;28;20480;-75
2023/03/24 00:26:16;;;;;;;5.30;4.20;;;14.40;56.90;;;;;;5094919;28;20474;-76
2023/03/24 00:28:47;;;;;;;4.90;4.13;;;14.40;56.90;;;;;;5076932;28;20106;-75
2023/03/24 00:31:14;;;;;;;5.60;4.60;;;14.40;56.90;;;;;;5094790;28;20422;-75
2023/03/24 00:33:41;;;;;;;5.55;4.57;;;14.40;57.00;;;;;;5095294;28;20028;-75
2023/03/24 00:36:11;;;;;;;5.32;4.60;;;14.40;56.90;;;;;;5094892;28;20056;-74
2023/03/24 00:38:39;;;;;;;5.28;4.20;;;14.40;56.90;;;;;;5076577;28;20063;-75
2023/03/24 00:41:06;;;;;;;6.47;4.53;;;14.40;56.90;;;;;;5093432;28;20032;-75
2023/03/24 00:43:33;;;;;;;4.68;4.18;;;14.40;56.90;;;;;;5094455;28;20102;-75
2023/03/24 00:46:09;;;;;;;5.50;4.40;;;14.40;56.90;;;;;;5094594;28;20020;-75
2023/03/24 00:48:37;;;;;;;5.25;4.50;;;14.40;56.90;;;;;;5077055;28;20064;-75
2023/03/24 00:51:06;;;;;;;5.03;3.83;;;14.40;56.90;;;;;;5094756;28;20438;-75
2023/03/24 00:53:33;;;;;;;5.45;4.80;;;14.40;56.90;;;;;;5095114;28;20030;-76
2023/03/24 00:55:59;;;;;;;5.47;4.47;;;14.30;56.90;;;;;;5076516;28;20028;-75
2023/03/24 00:58:28;;;;;;;5.07;4.28;;;14.40;56.90;;;;;;5094570;28;20038;-75
2023/03/24 01:00:56;;;;;;;5.35;4.00;;;14.30;56.90;;;;;;5094889;28;20461;-75
2023/03/24 01:03:26;;;;;;;4.75;4.00;;;14.40;57.00;;;;;;5094968;28;20461;-74
2023/03/24 01:05:56;;;;;;;5.72;4.18;;;14.40;57.00;;;;;;5094616;28;20496;-75
2023/03/24 01:08:24;;;;;;;5.25;4.18;;;14.40;57.00;;;;;;5094576;28;20469;-75
2023/03/24 01:10:54;;;;;;;5.15;4.22;;;14.40;57.00;;;;;;5076434;28;20028;-75
2023/03/24 01:13:28;;;;;;;7.28;5.00;;;14.40;57.10;;;;;;5076384;28;20052;-75
2023/03/24 01:15:54;;;;;;;4.18;3.75;;;14.30;57.00;;;;;;5094547;28;20024;-75
2023/03/24 01:18:22;;;;;;;6.10;4.85;;;14.30;57.00;;;;;;5094142;28;20071;-75
2023/03/24 01:20:48;;;;;;;5.95;4.47;;;14.40;57.10;;;;;;5094453;28;20032;-75
2023/03/24 01:23:18;;;;;;;5.95;4.60;;;14.30;57.10;;;;;;5093939;28;20077;-76
2023/03/24 01:25:46;;;;;;;5.30;4.10;;;14.30;57.10;;;;;;5094466;28;20035;-75
2023/03/24 01:28:15;;;;;;;4.93;4.00;;;14.30;57.10;;;;;;5076111;28;20032;-76
2023/03/24 01:30:41;;;;;;;7.78;4.60;;;14.30;57.10;;;;;;5075900;28;20028;-75
2023/03/24 01:33:07;;;;;;;4.60;3.70;;;14.30;57.10;;;;;;5094540;28;20118;-76
2023/03/24 01:35:33;;;;;;;5.80;4.30;;;14.30;57.10;;;;;;5075805;28;20140;-76
2023/03/24 01:37:59;;;;;;;5.40;4.35;;;14.30;57.10;;;;;;5093978;28;20458;-76
2023/03/24 01:40:29;;;;;;;4.38;3.70;;;14.30;57.10;;;;;;5076173;28;20032;-75
2023/03/24 01:42:55;;;;;;;6.55;4.45;;;14.30;57.20;;;;;;5094238;28;20052;-75
2023/03/24 01:45:39;;;;;;;5.20;4.18;;;14.30;57.20;;;;;;5094295;28;20100;-76
2023/03/24 01:48:15;;;;;;;4.40;3.70;;;14.30;57.20;;;;;;5093672;28;20035;-75
2023/03/24 01:50:45;;;;;;;5.82;4.53;;;14.30;57.20;;;;;;5093283;28;20050;-75
2023/03/24 01:53:11;;;;;;;4.20;3.80;;;14.30;57.20;;;;;;5075202;28;20166;-75
2023/03/24 01:55:37;;;;;;;5.53;4.95;;;14.30;57.20;;;;;;5075333;28;20521;-75
2023/03/24 01:58:05;;;;;;;5.68;4.35;;;14.20;57.20;;;;;;5093433;28;20121;-75
2023/03/24 02:00:33;;;;;;;4.43;3.97;;;14.30;57.30;;;;;;5093546;28;20032;-76
2023/03/24 02:03:05;;;;;;;5.70;4.50;;;14.30;57.30;;;;;;5092975;28;20024;-77
2023/03/24 02:05:34;;;;;;;5.22;3.85;;;14.30;57.30;;;;;;5093585;28;20585;-75
2023/03/24 02:08:06;;;;;;;6.03;3.80;;;14.20;57.50;;;;;;5093358;28;20047;-75
2023/03/24 02:10:34;;;;;;;5.60;3.88;;;14.30;57.30;;;;;;5093396;28;20032;-75
2023/03/24 02:13:00;;;;;;;6.60;4.00;;;14.20;57.30;;;;;;5093334;28;20042;-76
2023/03/24 02:15:28;;;;;;;5.43;4.22;;;14.20;57.30;;;;;;5074981;28;20030;-76
2023/03/24 02:18:24;;;;;;;6.32;4.25;;;14.20;57.40;;;;;;5093399;28;20028;-75
2023/03/24 02:21:26;;;;;;;5.82;4.38;;;14.20;57.40;;;;;;5063856;28;20036;-75
2023/03/24 02:24:34;;;;;;;8.60;4.13;;;14.20;57.40;;;;;;5093153;28;20461;-75
2023/03/24 02:27:12;;;;;;;5.10;3.85;;;14.20;57.40;;;;;;5082399;28;20450;-75
2023/03/24 02:30:08;;;;;;;5.13;3.97;;;14.20;57.40;;;;;;5093241;28;20398;-75
2023/03/24 02:33:05;;;;;;;6.07;4.05;;;14.10;57.40;;;;;;5075379;28;20024;-76
2023/03/24 02:35:46;;;;;;;5.38;3.70;;;14.20;57.50;;;;;;5093987;28;20436;-75
2023/03/24 02:38:33;;;;;;;4.88;4.10;;;14.10;57.40;;;;;;5097123;28;20035;-75
2023/03/24 02:41:26;;;;;;;5.22;4.22;;;14.10;57.40;;;;;;5097003;28;20123;-75
2023/03/24 02:44:24;;;;;;;6.28;3.97;;;14.10;57.40;;;;;;5097396;28;20461;-75
2023/03/24 02:47:06;;;;;;;4.63;3.80;;;14.10;57.50;;;;;;5092651;28;20506;-75
2023/03/24 02:50:19;;;;;;;4.22;3.83;;;14.10;57.50;;;;;;5079563;28;20028;-75
2023/03/24 02:52:51;;;;;;;5.13;3.38;;;14.10;57.60;;;;;;5014880;28;20026;-75
2023/03/24 02:55:25;;;;;;;4.32;3.50;;;14.10;57.50;;;;;;5083937;28;20405;-75
2023/03/24 02:57:56;;;;;;;7.23;3.90;;;14.10;57.60;;;;;;5062395;28;20044;-75
2023/03/24 03:00:40;;;;;;;4.63;4.03;;;14.10;57.60;;;;;;5078998;28;20062;-74
2023/03/24 03:03:14;;;;;;;4.43;3.78;;;14.10;57.60;;;;;;5096599;28;20469;-75
2023/03/24 03:05:53;;;;;;;5.32;4.43;;;14.10;57.70;;;;;;5078254;28;20500;-75
2023/03/24 03:08:21;;;;;;;4.03;3.63;;;14.10;57.70;;;;;;5096589;28;20042;-75
2023/03/24 03:10:49;;;;;;;4.47;3.65;;;14.10;57.70;;;;;;5096904;28;20094;-74
2023/03/24 03:13:32;;;;;;;4.95;3.75;;;14.00;57.70;;;;;;5096451;28;20469;-75
2023/03/24 03:16:08;;;;;;;4.07;3.60;;;14.00;58.30;;;;;;5096458;28;20024;-74
2023/03/24 03:19:10;;;;;;;5.38;4.03;;;14.00;57.70;;;;;;5096648;28;20064;-75
2023/03/24 03:21:41;;;;;;;4.90;3.80;;;14.00;57.80;;;;;;5082232;28;20040;-75
2023/03/24 03:24:18;;;;;;;5.07;3.63;;;14.00;57.70;;;;;;5096366;28;20363;-74
2023/03/24 03:26:46;;;;;;;6.35;3.95;;;14.00;57.70;;;;;;5096554;28;20323;-74
2023/03/24 03:29:17;;;;;;;5.28;3.72;;;14.00;57.70;;;;;;5096210;28;20042;-74
2023/03/24 03:31:52;;;;;;;4.22;3.65;;;14.00;57.80;;;;;;5096266;28;20053;-74
2023/03/24 03:34:53;;;;;;;5.50;4.15;;;14.00;57.80;;;;;;5095998;28;20048;-74
2023/03/24 03:37:29;;;;;;;3.55;3.13;;;14.00;57.90;;;;;;5078654;28;20507;-74
2023/03/24 03:40:11;;;;;;;4.88;3.92;;;14.00;57.80;;;;;;5095868;28;20028;-74
2023/03/24 03:42:37;;;;;;;5.65;4.30;;;14.00;57.90;;;;;;5096360;28;20028;-76
2023/03/24 03:45:05;;;;;;;4.15;3.30;;;13.90;57.80;;;;;;5095849;28;20453;-76
2023/03/24 03:47:31;;;;;;;5.55;3.70;;;13.90;57.90;;;;;;5077818;28;20035;-75
2023/03/24 03:49:57;;;;;;;5.40;4.05;;;13.90;57.90;;;;;;5096070;28;20024;-75
2023/03/24 03:52:23;;;;;;;4.93;3.80;;;13.90;57.90;;;;;;5080148;28;20024;-74
2023/03/24 03:54:49;;;;;;;3.90;3.50;;;13.90;58.50;;;;;;5096475;28;20028;-75
2023/03/24 03:57:17;;;;;;;4.82;3.88;;;14.00;57.90;;;;;;5095750;28;20488;-74
2023/03/24 03:59:42;;;;;;;4.63;3.95;;;14.00;57.90;;;;;;5095730;28;20024;-76
2023/03/24 04:02:28;;;;;;;5.72;4.00;;;14.00;57.90;;;;;;5077804;28;20076;-74
2023/03/24 04:05:06;;;;;;;4.93;4.10;;;14.00;57.90;;;;;;5054238;28;20043;-77
2023/03/24 04:08:02;;;;;;;5.43;4.30;;;14.00;57.90;;;;;;5095779;28;20032;-74
2023/03/24 04:11:00;;;;;;;5.57;4.32;;;14.00;57.90;;;;;;5095544;28;20115;-74
2023/03/24 04:13:53;;;;;;;5.43;4.20;;;14.00;57.90;;;;;;5096076;28;20024;-75
2023/03/24 04:17:06;;;;;;;5.00;3.85;;;14.00;57.80;;;;;;5095430;28;20035;-76
2023/03/24 04:19:40;;;;;;;6.82;3.72;;;14.00;57.80;;;;;;5075857;28;20051;-75
2023/03/24 04:22:15;;;;;;;;;;;14.00;57.70;;;;;;5095757;28;20034;-75
2023/03/24 04:24:44;;;;;;;4.47;3.30;;;14.00;57.90;;;;;;5095049;28;19904;-75
2023/03/24 04:27:37;;;;;;;4.80;3.72;;;14.00;57.70;;;;;;5095431;28;20109;-76
2023/03/24 04:30:24;;;;;;;4.70;3.65;;;14.10;57.80;;;;;;5077317;28;20020;-76
2023/03/24 04:32:57;;;;;;;4.20;3.60;;;14.00;57.70;;;;;;5095444;28;20516;-75
2023/03/24 04:35:44;;;;;;;5.22;3.30;;;14.10;57.70;;;;;;5089967;28;20120;-76
2023/03/24 04:38:16;;;;;;;3.85;3.35;;;14.10;57.80;;;;;;5115472;28;20032;-75
2023/03/24 04:40:44;;;;;;;4.32;3.47;;;14.10;57.80;;;;;;5097375;28;20407;-77
2023/03/24 04:43:15;;;;;;;4.30;3.42;;;14.10;57.80;;;;;;5115641;28;20028;-76
2023/03/24 04:45:42;;;;;;;4.50;3.58;;;14.10;57.80;;;;;;5097025;28;20030;-75
2023/03/24 04:48:10;;;;;;;5.10;3.70;;;14.10;57.80;;;;;;5115524;28;20115;-75
2023/03/24 04:50:38;;;;;;;5.90;4.10;;;14.10;57.80;;;;;;5097021;28;20023;-75
2023/03/24 04:53:06;;;;;;;7.00;4.85;;;14.20;57.90;;;;;;5096920;28;20028;-76
2023/03/24 04:55:52;;;;;;;7.10;5.03;;;14.20;57.90;;;;;;5096912;28;20042;-76
2023/03/24 04:58:19;;;;;;;6.00;4.78;;;14.20;57.80;;;;;;5114655;28;20492;-76
2023/03/24 05:00:45;;;;;;;6.60;5.07;;;14.20;57.90;;;;;;5115106;28;20031;-80
2023/03/24 05:03:13;;;;;;;6.88;5.03;;;14.20;57.80;;;;;;5114938;28;20101;-76
2023/03/24 05:05:40;;;;;;;7.07;5.10;;;14.20;57.80;;;;;;5114940;28;20030;-77
2023/03/24 05:08:07;;;;;;;6.05;4.65;;;14.30;57.90;;;;;;5096520;28;20030;-75
2023/03/24 05:10:36;;;;;;;5.60;4.72;;;14.30;57.90;;;;;;5095984;28;20084;-76
2023/03/24 05:13:03;;;;;;;6.30;4.50;;;14.30;57.90;;;;;;5114628;28;20107;-71
2023/03/24 05:15:29;;;;;;;6.47;4.90;;;14.30;57.90;;;;;;5114542;28;20034;-75
2023/03/24 05:17:55;;;;;;;4.57;3.70;;;14.30;57.90;;;;;;5114426;28;20036;-75
2023/03/24 05:20:22;;;;;;;4.40;3.47;;;14.30;58.40;;;;;;5114499;28;20024;-76
2023/03/24 05:22:48;;;;;;;4.90;3.35;;;14.30;58.50;;;;;;5114265;28;20031;-74
2023/03/24 05:25:15;;;;;;;4.55;3.63;;;14.40;58.50;;;;;;5096089;28;20020;-75
2023/03/24 05:27:41;;;;;;;4.55;3.50;;;14.50;58.40;;;;;;5114549;28;20151;-78
2023/03/24 05:30:07;;;;;;;5.40;3.72;;;14.50;58.30;;;;;;5096446;28;20030;-78
2023/03/24 05:32:33;;;;;;;4.57;3.58;;;14.50;58.20;;;;;;5096003;28;20024;-77
2023/03/24 05:34:59;;;;;;;4.15;3.45;;;14.50;58.20;;;;;;5104173;28;20093;-76
2023/03/24 05:37:26;;;;;;;5.50;3.97;;;14.50;58.80;;;;;;5093551;28;20036;-76
2023/03/24 05:39:52;;;;;;;5.88;3.78;;;14.60;58.20;;;;;;5093326;28;20027;-77
2023/03/24 05:42:18;;;;;;;5.38;4.10;;;14.60;58.10;;;;;;5075481;28;20029;-76
2023/03/24 05:44:44;;;;;;;4.72;3.58;;;14.70;58.10;;;;;;5093747;28;20334;-78
2023/03/24 05:47:11;;;;;;;4.30;3.53;;;14.70;58.10;;;;;;5093381;28;20473;-77
2023/03/24 05:49:37;;;;;;;4.90;3.90;;;14.80;58.00;;;;;;5093303;28;20381;-76
2023/03/24 05:52:04;;;;;;;5.07;4.00;;;14.80;58.00;;;;;;5084722;28;20021;-77
2023/03/24 05:54:32;;;;;;;5.22;3.75;;;14.80;57.90;;;;;;5082034;28;20432;-77
2023/03/24 05:56:59;;;;;;;4.40;3.63;;;14.90;57.90;;;;;;5082666;28;20390;-77
2023/03/24 05:59:25;;;;;;;4.85;3.88;;;14.90;57.80;;;;;;5074279;28;20524;-76
2023/03/24 06:01:52;;;;;;;4.70;3.65;;;15.00;57.70;;;;;;5084220;28;20423;-77
2023/03/24 06:04:19;;;;;;;4.10;3.42;;;15.00;57.60;;;;;;5077372;28;20436;-80
2023/03/24 06:06:45;;;;;;;4.20;3.58;;;15.10;57.60;;;;;;5075297;28;20028;-78
2023/03/24 06:09:13;;;;;;;6.32;3.63;;;15.10;57.60;;;;;;5060053;28;20490;-77
2023/03/24 06:11:39;;;;;;;4.57;3.60;;;15.10;57.50;;;;;;5088513;28;20533;-76
2023/03/24 06:14:06;;;;;;;3.83;3.33;;;15.20;57.40;;;;;;5083261;28;20095;-77
2023/03/24 06:16:32;;;;;;;4.95;3.78;;;15.20;57.40;;;;;;5079402;28;20044;-81
2023/03/24 06:19:02;;;;;;;4.72;3.55;;;15.30;57.50;;;;;;5067932;28;20049;-77
2023/03/24 06:21:29;;;;;;;5.68;3.90;;;15.30;57.40;;;;;;5070974;28;20072;-75
2023/03/24 06:23:57;;;;;;;5.60;3.55;;;15.30;57.40;;;;;;5090540;28;20082;-77
2023/03/24 06:26:23;;;;;;;5.50;4.18;;;15.30;57.30;;;;;;5072533;28;20027;-78
2023/03/24 06:28:50;;;;;;;5.30;4.07;;;15.40;57.30;;;;;;5090347;28;20036;-77
2023/03/24 06:31:20;;;;;;;5.32;3.95;;;15.40;57.30;;;;;;5053898;28;20033;-90
2023/03/24 06:33:49;;;;;;;5.70;4.20;;;15.50;57.30;;;;;;5073451;28;20020;-82
2023/03/24 06:36:17;;;;;;;4.47;3.70;;;15.50;57.20;;;;;;5072193;28;20041;-90
2023/03/24 06:38:43;;;;;;;4.72;3.60;;;15.50;57.10;;;;;;5071109;28;20048;-82
2023/03/24 06:41:09;;;;;;;5.57;4.00;;;15.60;57.10;;;;;;5071880;28;20199;-82
2023/03/24 06:43:34;;;;;;;4.25;3.78;;;15.60;57.10;;;;;;5072326;28;20415;-86
2023/03/24 06:46:00;;;;;;;5.28;3.65;;;15.60;57.00;;;;;;5073001;28;20465;-86
2023/03/24 06:48:27;;;;;;;4.20;3.58;;;15.60;57.00;;;;;;5073459;28;20031;-83
2023/03/24 06:50:53;;;;;;;4.78;3.35;;;15.70;57.00;;;;;;5072511;28;20029;-88
2023/03/24 06:53:22;;;;;;;3.78;3.17;;;15.70;56.90;;;;;;5074514;28;20035;-85
2023/03/24 06:55:49;;;;;;;4.63;3.70;;;15.70;56.90;;;;;;5087345;28;20466;-85
2023/03/24 06:58:16;;;;;;;4.40;3.47;;;15.70;56.80;;;;;;5094198;28;20039;-82
2023/03/24 07:00:43;;;;;;;4.85;4.00;;;15.70;56.80;;;;;;5092076;28;20024;-86
2023/03/24 07:03:09;;;;;;;6.15;3.60;;;15.80;56.70;;;;;;5092350;28;20024;-89
2023/03/24 07:05:38;;;;;;;4.97;4.03;;;15.80;56.70;;;;;;5079269;28;20162;-85
2023/03/24 07:08:04;;;;;;;4.78;4.10;;;15.90;56.70;;;;;;5072673;28;20029;-84
2023/03/24 07:10:30;;;;;;;4.18;3.35;;;15.90;56.60;;;;;;5070511;28;20033;-83
2023/03/24 07:12:56;;;;;;;5.80;4.13;;;15.90;56.60;;;;;;5071832;28;20029;-81
2023/03/24 07:15:22;;;;;;;4.78;3.67;;;15.90;56.60;;;;;;5071991;28;20051;-86
2023/03/24 07:17:48;;;;;;;4.65;3.60;;;16.00;56.60;;;;;;5072102;28;20130;-82
2023/03/24 07:20:14;;;;;;;4.90;3.63;;;16.00;56.40;;;;;;5071669;28;20024;-81
2023/03/24 07:22:40;;;;;;;5.40;4.03;;;16.10;56.40;;;;;;5074550;28;20029;-81
2023/03/24 07:25:06;;;;;;;4.97;3.63;;;16.20;56.30;;;;;;5074124;28;20478;-86
2023/03/24 07:27:34;;;;;;;4.25;3.60;;;16.20;56.70;;;;;;5075415;28;20060;-84
2023/03/24 07:30:01;;;;;;;5.25;3.90;;;16.30;56.10;;;;;;5074071;28;20090;-82
2023/03/24 07:32:29;;;;;;;4.45;3.65;;;16.30;55.90;;;;;;5073634;28;20027;-85
2023/03/24 07:34:56;;;;;;;6.32;4.50;;;16.40;55.80;;;;;;5084859;28;20138;-78
2023/03/24 07:37:22;;;;;;;5.97;4.55;;;16.30;55.70;;;;;;5095853;28;20028;-85
2023/03/24 07:39:47;;;;;;;4.63;4.00;;;16.40;55.70;;;;;;5095820;28;20024;-86
2023/03/24 07:42:13;;;;;;;4.88;4.07;;;16.40;55.60;;;;;;5095411;28;20020;-82
2023/03/24 07:44:38;;;;;;;5.95;4.25;;;16.40;55.60;;;;;;5095645;28;20069;-89
2023/03/24 07:47:04;;;;;;;4.70;3.97;;;16.50;55.60;;;;;;5095169;28;20473;-89
2023/03/24 07:49:30;;;;;;;6.15;4.55;;;16.50;55.50;;;;;;5077513;28;20373;-83
2023/03/24 07:51:57;;;;;;;7.88;5.00;;;16.60;55.40;;;;;;5095335;28;20035;-73
2023/03/24 07:54:23;;;;;;;4.18;3.78;;;16.60;55.40;;;;;;5095584;28;20039;-77
2023/03/24 07:56:49;;;;;;;5.35;4.50;;;16.60;55.80;;;;;;5077770;28;20052;-77
2023/03/24 07:59:16;;;;;;;6.53;4.25;;;16.70;55.20;;;;;;5077215;28;20486;-77
2023/03/24 08:01:42;;;;;;;5.63;4.40;;;16.70;55.00;;;;;;5077657;28;20050;-76
2023/03/24 08:04:11;;;;;;;4.75;3.90;;;16.70;54.90;;;;;;5095863;28;20032;-77
2023/03/24 08:06:37;;;;;;;6.72;4.85;;;16.80;55.00;;;;;;5077610;28;20047;-77
2023/03/24 08:09:03;;;;;;;5.07;4.50;;;16.80;54.90;;;;;;5095491;28;20454;-77
2023/03/24 08:11:29;;;;;;;4.88;4.10;;;16.90;54.80;;;;;;5094863;28;20039;-77
2023/03/24 08:13:54;;;;;;;5.43;4.13;;;17.00;54.80;;;;;;5095471;28;20031;-77
2023/03/24 08:16:20;;;;;;;5.78;4.28;;;17.00;54.70;;;;;;5095626;28;20027;-75
2023/03/24 08:18:47;;;;;;;7.32;4.68;;;17.10;54.60;;;;;;5077141;28;20032;-77
2023/03/24 08:21:13;;;;;;;6.45;4.20;;;17.10;54.50;;;;;;5095407;28;20153;-76
2023/03/24 08:23:39;;;;;;;6.43;4.55;;;17.20;54.50;;;;;;5077109;28;20024;-76
2023/03/24 08:26:06;;;;;;;5.60;4.43;;;17.20;54.30;;;;;;5095216;28;20054;-77
2023/03/24 08:28:31;;;;;;;5.72;4.60;;;17.30;54.30;;;;;;5095058;28;20024;-76
2023/03/24 08:30:57;;;;;;;6.40;4.80;;;17.30;54.10;;;;;;5095694;28;20034;-76
2023/03/24 08:33:23;;;;;;;4.63;3.97;;;17.30;54.10;;;;;;5094022;28;20024;-76
2023/03/24 08:35:50;;;;;;;5.97;4.20;;;17.40;54.10;;;;;;5094840;28;20060;-76
2023/03/24 08:38:15;;;;;;;5.38;4.65;;;17.40;54.00;;;;;;5094872;28;20086;-76
2023/03/24 08:40:42;;;;;;;5.55;4.30;;;17.40;53.90;;;;;;5094893;28;20427;-77
2023/03/24 08:43:12;;;;;;;4.60;3.58;;;17.50;53.90;;;;;;5094893;28;20065;-76
2023/03/24 08:45:38;;;;;;;5.55;3.90;;;17.50;53.90;;;;;;5095234;28;20044;-76
2023/03/24 08:48:05;;;;;;;5.63;4.97;;;17.60;53.80;;;;;;5094922;28;20064;-76
2023/03/24 08:50:40;;;;;;;6.10;4.55;;;17.70;53.80;;;;;;5094671;28;20194;-76
2023/03/24 08:53:07;;;;;;;6.38;4.20;;;17.70;53.70;;;;;;5094874;28;20054;-76
2023/03/24 08:55:33;;;;;;;6.90;5.30;;;17.80;53.60;;;;;;5094665;28;20434;-76
2023/03/24 08:57:59;;;;;;;6.38;4.18;;;17.80;53.50;;;;;;5094557;28;20032;-76
2023/03/24 09:00:25;;;;;;;5.13;4.50;;;17.90;53.50;;;;;;5094731;28;20032;-76
2023/03/24 09:02:52;;;;;;;6.15;4.63;;;17.90;53.40;;;;;;5094915;28;20096;-76
2023/03/24 09:05:20;;;;;;;6.45;4.70;;;18.00;53.40;;;;;;5076363;28;20476;-77
2023/03/24 09:07:46;;;;;;;5.68;4.25;;;18.00;53.30;;;;;;5094489;28;20024;-76
2023/03/24 09:10:14;;;;;;;5.60;4.40;;;18.10;53.30;;;;;;5095255;28;20032;-78
2023/03/24 09:12:44;;;;;;;5.80;4.60;;;18.20;53.20;;;;;;5095892;28;20032;-75
2023/03/24 09:15:12;;;;;;;5.13;4.03;;;18.20;53.20;;;;;;5094320;28;20031;-77
2023/03/24 09:17:38;;;;;;;5.35;3.97;;;18.20;53.00;;;;;;5094642;28;20032;-76
2023/03/24 09:20:10;;;;;;;6.40;5.05;;;18.30;53.00;;;;;;5094129;28;20024;-76
2023/03/24 09:22:37;;;;;;;5.65;4.82;;;18.30;52.90;;;;;;5093936;28;20047;-77
2023/03/24 09:25:03;;;;;;;5.68;4.78;;;18.40;52.90;;;;;;5094102;28;20454;-77
2023/03/24 09:27:30;;;;;;;7.53;4.78;;;18.40;52.90;;;;;;5075803;28;20050;-77
2023/03/24 09:29:55;;;;;;;5.57;4.40;;;18.40;52.70;;;;;;5094426;28;20032;-77
2023/03/24 09:32:21;;;;;;;6.43;5.22;;;18.50;52.70;;;;;;5093864;28;20095;-77
2023/03/24 09:34:47;;;;;;;7.70;4.82;;;18.50;52.60;;;;;;5093965;28;20048;-77
2023/03/24 09:37:13;;;;;;;5.32;4.35;;;18.50;52.60;;;;;;5093842;28;20028;-76
2023/03/24 09:39:41;;;;;;;7.47;4.43;;;18.60;52.50;;;;;;5093517;28;20028;-77
2023/03/24 09:42:19;;;;;;;5.07;4.18;;;18.60;52.70;;;;;;5093918;28;20525;-76
2023/03/24 09:44:49;;;;;;;5.80;4.18;;;18.60;52.30;;;;;;5093745;28;20035;-77
2023/03/24 09:47:37;;;;;;;5.90;4.53;;;18.60;52.30;;;;;;5094258;28;20024;-77
2023/03/24 09:50:20;;;;;;;5.30;4.28;;;18.60;52.00;;;;;;5093631;28;20071;-75
2023/03/24 09:52:49;;;;;;;6.82;4.88;;;18.60;52.00;;;;;;5075515;28;20367;-76
2023/03/24 09:55:23;;;;;;;7.18;5.22;;;18.60;52.10;;;;;;5093528;28;20043;-77
2023/03/24 09:57:50;;;;;;;5.77;5.07;;;18.60;52.10;;;;;;5093812;28;20028;-77
2023/03/24 10:00:29;;;;;;;5.25;4.50;;;18.70;52.20;;;;;;5093492;28;20180;-76
2023/03/24 10:03:19;;;;;;;6.28;4.43;;;18.70;52.10;;;;;;5093659;28;20114;-76
2023/03/24 10:05:55;;;;;;;6.10;4.38;;;18.70;52.10;;;;;;5075634;28;20107;-75
2023/03/24 10:08:42;;;;;;;6.07;4.90;;;18.70;52.00;;;;;;5075190;28;20528;-76
2023/03/24 10:11:10;;;;;;;5.40;3.83;;;18.70;51.80;;;;;;5093649;28;20032;-76
2023/03/24 10:13:59;;;;;;;5.43;4.53;;;18.80;51.90;;;;;;5093699;28;20366;-76
2023/03/24 10:16:48;;;;;;;5.90;4.72;;;18.80;51.80;;;;;;5093677;28;20031;-76
2023/03/24 10:19:25;;;;;;;5.47;4.20;;;18.80;51.90;;;;;;5080051;28;20082;-75
2023/03/24 10:22:03;;;;;;;4.88;3.83;;;18.90;51.80;;;;;;5093776;28;20028;-76
2023/03/24 10:24:41;;;;;;;4.38;3.72;;;18.90;51.70;;;;;;5093470;28;20055;-76
2023/03/24 10:27:12;;;;;;;4.65;4.15;;;19.00;51.70;;;;;;5093251;28;20370;-76
2023/03/24 10:29:39;;;;;;;5.10;3.83;;;19.00;51.60;;;;;;5093701;28;20035;-76
2023/03/24 10:32:05;;;;;;;5.40;4.43;;;19.00;51.60;;;;;;5093274;28;20477;-76
2023/03/24 10:34:32;;;;;;;5.65;4.18;;;19.00;51.50;;;;;;5093130;28;20052;-76
2023/03/24 10:37:01;;;;;;;5.00;4.10;;;19.00;51.40;;;;;;5092991;28;20032;-76
2023/03/24 10:39:29;;;;;;;4.40;3.83;;;19.10;51.50;;;;;;5092845;28;20036;-76
2023/03/24 10:41:57;;;;;;;5.72;3.58;;;19.10;51.40;;;;;;5093123;28;20175;-76
2023/03/24 10:44:23;;;;;;;5.07;4.13;;;19.10;51.30;;;;;;5093206;28;20130;-76
2023/03/24 10:46:53;;;;;;;5.85;4.30;;;19.20;51.30;;;;;;5058983;28;20028;-76
2023/03/24 10:49:21;;;;;;;4.80;3.92;;;19.20;51.30;;;;;;5093025;28;20035;-76
2023/03/24 10:51:52;;;;;;;4.90;4.10;;;19.20;51.30;;;;;;5091894;28;20032;-76
2023/03/24 10:54:21;;;;;;;6.68;4.88;;;19.20;51.20;;;;;;5092184;28;20069;-76
2023/03/24 10:57:01;;;;;;;4.55;3.80;;;19.20;51.20;;;;;;5076088;28;20036;-76
2023/03/24 10:59:47;;;;;;;4.97;4.00;;;19.30;51.20;;;;;;5097117;28;20047;-76
2023/03/24 11:02:30;;;;;;;5.50;3.05;;;19.30;51.20;;;;;;5097152;28;20020;-77
2023/03/24 11:05:13;;;;;;;3.95;3.55;;;19.30;51.00;;;;;;5096857;28;20531;-76
2023/03/24 11:07:41;;;;;;;4.07;3.22;;;19.30;51.10;;;;;;5078845;28;20039;-76
2023/03/24 11:10:10;;;;;;;4.60;3.00;;;19.30;51.20;;;;;;5096672;28;20028;-76
2023/03/24 11:13:01;;;;;;;3.08;2.80;;;19.30;51.30;;;;;;5096502;28;20382;-76
2023/03/24 11:15:29;;;;;;;2.92;2.50;;;19.30;51.10;;;;;;5067111;28;20063;-75
2023/03/24 11:17:55;;;;;;;3.30;3.00;;;19.40;51.30;;;;;;5096722;28;20540;-75
2023/03/24 11:20:59;;;;;;;4.80;3.20;;;19.40;51.30;;;;;;5096409;28;20060;-76
2023/03/24 11:23:33;;;;;;;3.88;3.10;;;19.40;51.10;;;;;;5078183;28;20028;-76
2023/03/24 11:26:21;;;;;;;6.55;2.85;;;19.40;51.30;;;;;;5078430;28;20111;-75
2023/03/24 11:28:51;;;;;;;4.22;3.10;;;19.50;51.30;;;;;;5096488;28;20070;-77
2023/03/24 11:31:25;;;;;;;2.92;2.63;;;19.50;51.40;;;;;;5096627;28;20055;-77
2023/03/24 11:34:23;;;;;;;4.25;3.05;;;19.60;51.40;;;;;;5096411;28;20028;-74
2023/03/24 11:36:58;;;;;;;4.65;3.00;;;19.60;51.20;;;;;;5086765;28;20049;-76
2023/03/24 11:39:25;;;;;;;4.82;3.20;;;19.70;51.40;;;;;;5077513;28;20043;-76
2023/03/24 11:41:57;;;;;;;4.18;3.03;;;19.70;51.30;;;;;;5096099;28;20028;-78
2023/03/24 11:44:24;;;;;;;3.67;3.08;;;19.70;51.30;;;;;;5096182;28;20032;-77
2023/03/24 11:46:58;;;;;;;3.42;3.08;;;19.80;51.30;;;;;;5096122;28;20509;-76
2023/03/24 11:49:31;;;;;;;;;;;19.80;51.20;;;;;;5096400;28;20024;-76
2023/03/24 11:51:58;;;;;;;3.70;3.08;;;19.80;51.10;;;;;;5095745;28;20345;-77
2023/03/24 11:54:33;;;;;;;4.55;3.05;;;19.80;51.20;;;;;;5096044;28;20024;-76
2023/03/24 11:57:04;;;;;;;4.47;2.80;;;19.90;51.20;;;;;;5096021;28;20028;-76
2023/03/24 11:59:56;;;;;;;4.07;2.90;;;19.90;51.20;;;;;;5096057;28;20047;-75
2023/03/24 12:02:57;;;;;;;2.95;2.63;;;19.90;51.10;;;;;;5095928;28;20032;-76
2023/03/24 12:05:36;;;;;;;2.78;2.45;;;19.90;51.10;;;;;;5096602;28;20016;-76
2023/03/24 12:08:32;;;;;;;4.57;2.95;;;20.00;51.20;;;;;;5095148;28;20538;-75
2023/03/24 12:11:30;;;;;;;3.35;2.80;;;20.00;51.10;;;;;;5079897;28;20446;-76
2023/03/24 12:13:56;;;;;;;4.03;3.20;;;20.00;51.00;;;;;;5057775;28;20043;-76
2023/03/24 12:16:49;;;;;;;3.55;3.03;;;20.00;51.10;;;;;;5095085;28;20389;-76
2023/03/24 12:19:46;;;;;;;3.72;3.20;;;20.00;51.10;;;;;;5095258;28;20064;-76
2023/03/24 12:22:56;;;;;;;6.32;2.85;;;20.00;51.10;;;;;;5077618;28;20085;-76
2023/03/24 12:25:28;;;;;;;3.97;3.15;;;20.10;50.90;;;;;;5077263;28;20043;-76
2023/03/24 12:28:09;;;;;;;3.92;3.20;;;20.10;51.10;;;;;;5094875;28;20034;-76
2023/03/24 12:30:53;;;;;;;4.00;3.10;;;20.10;51.00;;;;;;5095296;28;20016;-76
2023/03/24 12:33:28;;;;;;;4.57;3.20;;;20.10;51.10;;;;;;5076659;28;20036;-76
2023/03/24 12:35:59;;;;;;;4.30;3.17;;;20.20;51.10;;;;;;5076421;28;20144;-75
2023/03/24 12:38:40;;;;;;;3.50;3.00;;;20.20;51.00;;;;;;5094558;28;20132;-75
2023/03/24 12:41:11;;;;;;;3.42;3.00;;;20.30;50.90;;;;;;5094642;28;20032;-75
2023/03/24 12:44:10;;;;;;;3.75;3.00;;;20.30;50.80;;;;;;5094829;28;20034;-76
2023/03/24 12:46:51;;;;;;;5.78;3.28;;;20.30;50.60;;;;;;5094714;28;20180;-76
2023/03/24 12:49:52;;;;;;;2.95;2.67;;;20.30;50.70;;;;;;5094549;28;20024;-77
2023/03/24 12:52:50;;;;;;;4.78;3.22;;;20.30;50.60;;;;;;5094325;28;20060;-76
2023/03/24 12:55:40;;;;;;;3.65;3.13;;;20.20;50.50;;;;;;5038645;28;20046;-76
2023/03/24 12:58:25;;;;;;;4.03;3.35;;;20.30;50.80;;;;;;5080511;28;20048;-77
2023/03/24 13:01:06;;;;;;;5.85;3.28;;;20.20;50.70;;;;;;5094453;28;20461;-76
2023/03/24 13:04:04;;;;;;;3.65;2.58;;;20.30;50.80;;;;;;5093981;28;20157;-76
2023/03/24 13:06:37;;;;;;;3.50;3.05;;;20.30;50.60;;;;;;5059648;28;20043;-76
2023/03/24 13:09:25;;;;;;;4.25;3.15;;;20.50;50.80;;;;;;5094415;28;20043;-76
2023/03/24 13:12:01;;;;;;;3.90;3.15;;;20.50;50.70;;;;;;5042770;28;20093;-76
2023/03/24 13:15:10;;;;;;;3.72;2.85;;;20.70;50.60;;;;;;5094003;28;20413;-76
2023/03/24 13:17:40;;;;;;;4.97;2.88;;;20.80;50.30;;;;;;5029482;28;20350;-76